Time;durP1;ratioP1;P1;durP2;ratioP2;P2;SDS_P1;SDS_P2;PMS_P1;PMS_P2;Temp;Humidity;BMP_temperature;BMP_pressure;BME280_temperature;BME280_humidity;BME280_pressure;Samples;Min_cycle;Max_cycle;Signal;HPM_P1;HPM_P2
2021/04/12 00:00:46;;;;;;;0.30;0.20;;;;;;;5.71;100.00;100660.59;4976929;28;20450;-58
2021/04/12 00:03:21;;;;;;;0.30;0.20;;;;;;;5.79;100.00;100657.94;4988123;28;20445;-58
2021/04/12 00:05:59;;;;;;;0.53;0.53;;;;;;;5.72;100.00;100656.19;5027342;28;20453;-59
2021/04/12 00:08:34;;;;;;;0.30;0.20;;;;;;;5.76;100.00;100666.75;5036803;28;20513;-59
2021/04/12 00:11:18;;;;;;;0.30;0.23;;;;;;;5.71;100.00;100681.69;5054965;28;20867;-58
2021/04/12 00:14:16;;;;;;;0.77;0.77;;;;;;;5.66;100.00;100688.75;5055029;28;21019;-58
2021/04/12 00:16:58;;;;;;;0.30;0.20;;;;;;;5.61;100.00;100686.09;5054482;28;20477;-58
2021/04/12 00:19:34;;;;;;;0.30;0.20;;;;;;;5.62;100.00;100695.81;5037277;28;20460;-58
2021/04/12 00:22:16;;;;;;;3.53;0.83;;;;;;;5.60;100.00;100684.34;5048063;28;20928;-58
2021/04/12 00:24:48;;;;;;;0.30;0.13;;;;;;;5.62;100.00;100693.16;5054887;28;20443;-58
2021/04/12 00:27:24;;;;;;;2.63;2.57;;;;;;;5.69;100.00;100694.00;5050440;28;20492;-58
2021/04/12 00:30:00;;;;;;;0.30;0.20;;;;;;;5.71;100.00;100688.72;5053816;28;20469;-58
2021/04/12 00:32:33;;;;;;;0.30;0.20;;;;;;;5.66;100.00;100675.56;5054632;28;20443;-57
2021/04/12 00:35:08;;;;;;;0.30;0.20;;;;;;;5.57;100.00;100680.84;5054644;28;20522;-58
2021/04/12 00:37:45;;;;;;;0.30;0.10;;;;;;;5.49;100.00;100672.97;5054393;28;20524;-58
2021/04/12 00:40:11;;;;;;;0.30;0.10;;;;;;;5.56;100.00;100669.44;5054351;28;20453;-58
2021/04/12 00:43:15;;;;;;;0.30;0.10;;;;;;;5.57;100.00;100673.81;5054275;28;21009;-58
2021/04/12 00:45:55;;;;;;;2.10;1.70;;;;;;;5.55;100.00;100665.03;5053984;28;20447;-58
2021/04/12 00:48:21;;;;;;;0.37;0.30;;;;;;;5.53;100.00;100672.06;5053695;28;20439;-58
2021/04/12 00:51:25;;;;;;;0.30;0.20;;;;;;;5.82;100.00;100681.66;5054164;28;20465;-58
2021/04/12 00:54:23;;;;;;;0.30;0.20;;;;;;;5.78;100.00;100690.47;5054108;28;21013;-58
2021/04/12 00:56:55;;;;;;;0.30;0.10;;;;;;;5.74;100.00;100701.91;5053531;28;20463;-58
2021/04/12 00:59:32;;;;;;;0.30;0.20;;;;;;;5.72;100.00;100708.94;5052694;28;20936;-58
2021/04/12 01:02:16;;;;;;;0.30;0.13;;;;;;;5.65;100.00;100716.88;5038070;28;20500;-58
2021/04/12 01:04:48;;;;;;;0.30;0.20;;;;;;;5.52;100.00;100714.25;5053918;28;20952;-58
2021/04/12 01:07:25;;;;;;;0.30;0.20;;;;;;;5.55;100.00;100723.03;5033892;28;20487;-58
2021/04/12 01:10:34;;;;;;;0.87;0.60;;;;;;;5.96;100.00;100729.16;5054146;28;20776;-58
2021/04/12 01:13:00;;;;;;;0.30;0.20;;;;;;;6.03;100.00;100728.22;5053711;28;20986;-58
2021/04/12 01:15:57;;;;;;;0.40;0.40;;;;;;;6.18;100.00;100730.84;5053733;28;20451;-58
2021/04/12 01:18:54;;;;;;;0.30;0.10;;;;;;;6.37;100.00;100731.66;5053816;28;20500;-58
2021/04/12 01:21:58;;;;;;;0.30;0.10;;;;;;;6.13;100.00;100727.31;5053656;28;20497;-58
2021/04/12 01:24:52;;;;;;;0.30;0.10;;;;;;;6.23;100.00;100713.22;5054159;28;20469;-58
2021/04/12 01:27:44;;;;;;;0.30;0.30;;;;;;;6.08;100.00;100723.84;5048483;28;20498;-58
2021/04/12 01:30:29;;;;;;;0.30;0.10;;;;;;;6.08;100.00;100729.13;5000015;28;20454;-58
2021/04/12 01:33:29;;;;;;;0.30;0.10;;;;;;;6.14;100.00;100729.97;5052394;28;20447;-58
2021/04/12 01:36:21;;;;;;;0.30;0.10;;;;;;;6.18;100.00;100737.00;5053338;28;20891;-58
2021/04/12 01:39:13;;;;;;;0.30;0.20;;;;;;;6.16;100.00;100745.78;5053203;28;20447;-58
2021/04/12 01:41:53;;;;;;;0.30;0.10;;;;;;;5.94;100.00;100759.06;5031968;28;20442;-59
2021/04/12 01:44:20;;;;;;;0.30;0.20;;;;;;;5.96;100.00;100760.81;5053250;28;20951;-58
2021/04/12 01:47:12;;;;;;;0.30;0.20;;;;;;;6.33;100.00;100766.88;5053029;28;20722;-58
2021/04/12 01:49:52;;;;;;;0.30;0.20;;;;;;;6.12;100.00;100768.69;5029662;28;20457;-59
2021/04/12 01:52:21;;;;;;;0.30;0.20;;;;;;;5.89;100.00;100768.72;5052938;28;20927;-58
2021/04/12 01:54:57;;;;;;;0.30;0.10;;;;;;;6.11;100.00;100764.28;5053067;28;20500;-58
2021/04/12 01:57:36;;;;;;;0.30;0.10;;;;;;;6.11;100.00;100764.28;5052519;28;20462;-58
2021/04/12 02:00:33;;;;;;;0.40;0.40;;;;;;;6.19;100.00;100764.28;5046176;28;20448;-58
2021/04/12 02:03:27;;;;;;;0.30;0.20;;;;;;;5.64;100.00;100769.63;5045478;28;20447;-58
2021/04/12 02:06:14;;;;;;;0.30;0.20;;;;;;;5.61;100.00;100772.25;5030045;28;20508;-58
2021/04/12 02:09:23;;;;;;;0.30;0.10;;;;;;;5.53;100.00;100779.28;5051945;28;20451;-58
2021/04/12 02:12:03;;;;;;;0.30;0.20;;;;;;;5.81;100.00;100788.06;5002615;28;20448;-59
2021/04/12 02:14:48;;;;;;;0.37;0.37;;;;;;;5.65;100.00;100784.56;5052793;28;20446;-58
2021/04/12 02:17:14;;;;;;;0.30;0.13;;;;;;;5.99;100.00;100790.69;5052517;28;20470;-58
2021/04/12 02:19:41;;;;;;;0.30;0.10;;;;;;;5.93;100.00;100793.38;5052640;28;20848;-58
2021/04/12 02:22:51;;;;;;;0.30;0.10;;;;;;;5.90;100.00;100794.25;5052601;28;20541;-58
2021/04/12 02:25:24;;;;;;;0.30;0.20;;;;;;;6.32;100.00;100794.16;5029980;28;20455;-58
2021/04/12 02:28:15;;;;;;;0.20;0.10;;;;;;;6.18;100.00;100808.25;5046052;28;20502;-58
2021/04/12 02:31:00;;;;;;;0.30;0.20;;;;;;;6.23;99.48;100809.13;5052506;28;20497;-58
2021/04/12 02:33:44;;;;;;;0.30;0.20;;;;;;;5.97;99.71;100812.69;5030890;28;20483;-58
2021/04/12 02:36:10;;;;;;;0.30;0.20;;;;;;;5.78;100.00;100809.19;5052262;28;20528;-58
2021/04/12 02:38:44;;;;;;;0.30;0.20;;;;;;;6.08;99.18;100809.16;5052049;28;20458;-58
2021/04/12 02:41:35;;;;;;;0.30;0.20;;;;;;;5.84;100.00;100814.44;5052056;28;20910;-58
2021/04/12 02:44:21;;;;;;;0.30;0.20;;;;;;;5.91;99.78;100826.78;5052225;28;20454;-58
2021/04/12 02:47:06;;;;;;;0.30;0.17;;;;;;;5.78;100.00;100819.72;5052271;28;20490;-58
2021/04/12 02:49:44;;;;;;;0.30;0.20;;;;;;;5.55;100.00;100833.78;5027598;28;20539;-58
2021/04/12 02:52:49;;;;;;;0.30;0.20;;;;;;;5.87;100.00;100839.03;5051006;28;20446;-58
2021/04/12 02:55:33;;;;;;;0.30;0.10;;;;;;;5.63;98.88;100845.22;4996874;28;20453;-58
2021/04/12 02:58:37;;;;;;;0.30;0.10;;;;;;;5.77;98.96;100834.66;5049621;28;20466;-58
2021/04/12 03:01:27;;;;;;;0.30;0.20;;;;;;;5.88;98.20;100832.00;5027448;28;20948;-58
2021/04/12 03:04:05;;;;;;;0.30;0.20;;;;;;;5.85;97.86;100845.19;5051667;28;20940;-58
2021/04/12 03:06:43;;;;;;;0.30;0.20;;;;;;;5.91;97.96;100845.25;5046518;28;20529;-58
2021/04/12 03:09:36;;;;;;;0.30;0.30;;;;;;;5.48;99.29;100850.50;5052042;28;20447;-58
2021/04/12 03:12:51;;;;;;;0.30;0.20;;;;;;;5.81;99.71;100848.72;5050509;28;20493;-58
2021/04/12 03:15:43;;;;;;;0.30;0.10;;;;;;;5.78;99.37;100846.09;5029922;28;20928;-58
2021/04/12 03:18:55;;;;;;;0.30;0.20;;;;;;;5.67;98.88;100850.50;5055955;28;20442;-58
2021/04/12 03:21:50;;;;;;;0.30;0.20;;;;;;;5.56;98.74;100856.63;5055928;28;20457;-58
2021/04/12 03:24:31;;;;;;;0.30;0.20;;;;;;;5.76;99.54;100863.69;5053710;28;20454;-58
2021/04/12 03:27:31;;;;;;;0.30;0.20;;;;;;;5.71;97.81;100861.03;5053738;28;20499;-58
2021/04/12 03:30:25;;;;;;;0.30;0.10;;;;;;;5.53;98.34;100871.56;5030614;28;20516;-58
2021/04/12 03:32:56;;;;;;;0.30;0.20;;;;;;;5.63;97.94;100879.50;5055713;28;20825;-57
2021/04/12 03:35:44;;;;;;;0.40;0.40;;;;;;;5.82;98.59;100882.16;5055510;28;20442;-57
2021/04/12 03:38:18;;;;;;;0.30;0.10;;;;;;;5.65;97.97;100885.66;5033940;28;20473;-57
2021/04/12 03:40:56;;;;;;;0.30;0.20;;;;;;;5.52;99.79;100894.44;5054295;28;20516;-57
2021/04/12 03:43:40;;;;;;;0.30;0.10;;;;;;;5.64;98.99;100899.72;5055623;28;20442;-57
2021/04/12 03:46:08;;;;;;;0.30;0.17;;;;;;;5.51;99.77;100895.31;5030949;28;20525;-57
2021/04/12 03:48:53;;;;;;;0.30;0.20;;;;;;;5.53;99.18;100892.66;5055480;28;20450;-57
2021/04/12 03:51:25;;;;;;;0.30;0.20;;;;;;;5.27;100.00;100904.03;5055443;28;20442;-57
2021/04/12 03:53:57;;;;;;;0.30;0.20;;;;;;;5.30;100.00;100909.31;5053991;28;20443;-57
2021/04/12 03:57:01;;;;;;;0.30;0.10;;;;;;;5.30;100.00;100911.06;5055543;28;20467;-57
2021/04/12 03:59:51;;;;;;;0.30;0.20;;;;;;;5.33;100.00;100913.69;5034103;28;20462;-57
2021/04/12 04:02:53;;;;;;;0.30;0.20;;;;;;;5.41;99.95;100917.25;5041477;28;20565;-57
2021/04/12 04:05:41;;;;;;;0.30;0.20;;;;;;;5.22;100.00;100913.69;5023135;28;20454;-57
2021/04/12 04:08:37;;;;;;;0.30;0.20;;;;;;;5.48;98.64;100920.75;5043222;28;20485;-57
2021/04/12 04:11:25;;;;;;;0.30;0.20;;;;;;;5.71;96.90;100926.97;5055104;28;20446;-57
2021/04/12 04:14:19;;;;;;;0.30;0.20;;;;;;;5.46;97.50;100933.94;5030757;28;20793;-57
2021/04/12 04:17:08;;;;;;;0.30;0.20;;;;;;;5.36;98.11;100934.81;5054598;28;20477;-57
2021/04/12 04:19:43;;;;;;;0.30;0.20;;;;;;;5.31;98.29;100932.16;5054922;28;20446;-57
2021/04/12 04:22:10;;;;;;;0.30;0.10;;;;;;;5.53;98.55;100943.63;5054872;28;20451;-56
2021/04/12 04:24:51;;;;;;;0.30;0.20;;;;;;;5.46;98.39;100940.97;5054652;28;20454;-57
2021/04/12 04:27:45;;;;;;;0.30;0.20;;;;;;;5.07;98.47;100939.94;5048754;28;20552;-56
2021/04/12 04:30:12;;;;;;;0.30;0.20;;;;;;;4.97;99.64;100948.72;5031671;28;20477;-57
2021/04/12 04:32:38;;;;;;;0.30;0.10;;;;;;;5.02;100.00;100947.84;5054516;28;20446;-57
2021/04/12 04:35:28;;;;;;;0.30;0.10;;;;;;;5.00;100.00;100946.09;5054670;28;20453;-57
2021/04/12 04:38:29;;;;;;;0.30;0.10;;;;;;;4.89;100.00;100961.81;5053095;28;20509;-57
2021/04/12 04:41:12;;;;;;;0.30;0.20;;;;;;;4.86;100.00;100956.56;5050590;28;20458;-56
2021/04/12 04:44:02;;;;;;;0.30;0.20;;;;;;;5.06;100.00;100965.41;5054280;28;20881;-56
2021/04/12 04:47:03;;;;;;;0.30;0.10;;;;;;;4.77;100.00;100969.66;5031518;28;20884;-56
2021/04/12 04:49:55;;;;;;;0.30;0.10;;;;;;;4.58;100.00;100971.31;5054374;28;20451;-56
2021/04/12 04:52:50;;;;;;;0.30;0.17;;;;;;;4.53;100.00;100978.31;5053011;28;20558;-56
2021/04/12 04:55:51;;;;;;;0.30;0.10;;;;;;;4.72;100.00;100950.31;5054398;28;20500;-56
2021/04/12 04:58:43;;;;;;;0.20;0.10;;;;;;;5.01;100.00;100982.09;5053047;28;20443;-56
2021/04/12 05:01:28;;;;;;;0.30;0.20;;;;;;;4.99;99.43;100986.47;5030496;28;20440;-57
2021/04/12 05:04:17;;;;;;;0.30;0.20;;;;;;;5.35;99.03;100981.38;5053802;28;20454;-57
2021/04/12 05:07:07;;;;;;;0.30;0.10;;;;;;;4.97;98.79;100985.59;5047971;28;20491;-57
2021/04/12 05:09:44;;;;;;;0.30;0.10;;;;;;;5.17;98.47;100998.84;5054066;28;20473;-57
2021/04/12 05:12:20;;;;;;;0.30;0.20;;;;;;;5.33;97.58;101005.94;5029402;28;20505;-57
2021/04/12 05:15:16;;;;;;;0.30;0.10;;;;;;;4.97;97.63;101007.53;5052668;28;20446;-57
2021/04/12 05:18:22;;;;;;;0.30;0.13;;;;;;;5.05;99.11;101018.09;5053529;28;21057;-56
2021/04/12 05:21:16;;;;;;;0.30;0.20;;;;;;;4.99;99.20;101026.88;5037130;28;20827;-57
2021/04/12 05:23:45;;;;;;;0.30;0.13;;;;;;;5.01;99.17;101037.41;5031360;28;20450;-57
2021/04/12 05:26:20;;;;;;;0.30;0.20;;;;;;;4.90;98.40;101033.81;5053688;28;20466;-57
2021/04/12 05:29:32;;;;;;;0.30;0.17;;;;;;;5.13;96.41;101036.63;5046350;28;20481;-57
2021/04/12 05:32:11;;;;;;;0.30;0.20;;;;;;;5.25;98.17;101047.22;5017836;28;20497;-56
2021/04/12 05:35:03;;;;;;;0.30;0.20;;;;;;;5.02;97.31;101047.97;5053272;28;20447;-57
2021/04/12 05:37:57;;;;;;;0.67;0.67;;;;;;;5.16;95.92;101049.78;5053144;28;20493;-57
2021/04/12 05:40:35;;;;;;;0.43;0.43;;;;;;;5.42;95.36;101055.22;5053231;28;20455;-57
2021/04/12 05:43:14;;;;;;;0.30;0.20;;;;;;;5.34;95.75;101060.44;5028971;28;20790;-57
2021/04/12 05:45:51;;;;;;;0.30;0.20;;;;;;;5.14;97.54;101068.22;5053218;28;20458;-57
2021/04/12 05:48:30;;;;;;;0.30;0.20;;;;;;;5.61;96.38;101071.09;5053177;28;20532;-57
2021/04/12 05:51:09;;;;;;;0.20;0.13;;;;;;;4.99;99.43;101074.28;5053398;28;20439;-57
2021/04/12 05:53:56;;;;;;;1.40;1.30;;;;;;;5.00;99.78;101073.41;5053086;28;20443;-57
2021/04/12 05:56:55;;;;;;;0.30;0.20;;;;;;;5.33;99.65;101082.38;5053054;28;20474;-56
2021/04/12 05:59:43;;;;;;;0.30;0.10;;;;;;;5.42;98.66;101094.75;5028600;28;20463;-57
2021/04/12 06:02:34;;;;;;;0.30;0.10;;;;;;;5.25;99.37;101092.91;5051253;28;20439;-57
2021/04/12 06:05:03;;;;;;;0.30;0.20;;;;;;;5.07;100.00;101100.66;5052802;28;20536;-57
2021/04/12 06:08:05;;;;;;;0.30;0.20;;;;;;;5.29;100.00;101102.59;5047200;28;20490;-57
2021/04/12 06:10:51;;;;;;;0.30;0.10;;;;;;;5.32;99.63;101096.44;4986738;28;20448;-57
2021/04/12 06:13:38;;;;;;;0.30;0.10;;;;;;;5.31;99.43;101107.88;5050394;28;20458;-57
2021/04/12 06:16:14;;;;;;;0.30;0.10;;;;;;;5.39;99.83;101108.81;5052668;28;20462;-57
2021/04/12 06:18:46;;;;;;;0.30;0.20;;;;;;;5.57;98.38;101110.66;5052637;28;20849;-57
2021/04/12 06:21:43;;;;;;;0.30;0.10;;;;;;;5.68;97.52;101106.31;5036453;28;20452;-57
2021/04/12 06:24:28;;;;;;;0.30;0.20;;;;;;;5.47;99.00;101116.72;5052756;28;20439;-57
2021/04/12 06:27:25;;;;;;;0.30;0.20;;;;;;;5.47;99.80;101112.34;5051545;28;20567;-57
2021/04/12 06:30:21;;;;;;;0.30;0.20;;;;;;;5.89;97.21;101116.97;5026840;28;20799;-57
2021/04/12 06:33:38;;;;;;;0.30;0.20;;;;;;;5.86;96.11;101119.56;5052750;28;20443;-57
2021/04/12 06:36:22;;;;;;;0.30;0.20;;;;;;;5.74;95.99;101118.63;5014912;28;20987;-57
2021/04/12 06:39:06;;;;;;;1.33;1.33;;;;;;;5.94;96.94;101124.91;5051448;28;20470;-57
2021/04/12 06:42:02;;;;;;;0.30;0.10;;;;;;;6.16;92.98;101124.09;5052449;28;20450;-57
2021/04/12 06:44:40;;;;;;;0.50;0.50;;;;;;;5.85;93.75;101133.63;5027454;28;20443;-57
2021/04/12 06:47:57;;;;;;;0.30;0.20;;;;;;;5.80;94.24;101124.81;5051886;28;20991;-57
2021/04/12 06:50:46;;;;;;;1.50;1.03;;;;;;;6.07;93.44;101131.13;4997171;28;20855;-57
2021/04/12 06:53:27;;;;;;;0.30;0.20;;;;;;;6.06;92.97;101135.53;4989252;28;20501;-57
2021/04/12 06:55:53;;;;;;;0.30;0.13;;;;;;;5.80;92.71;101147.69;5022413;28;20446;-57
2021/04/12 06:58:49;;;;;;;0.30;0.20;;;;;;;5.94;93.68;101146.03;5040346;28;20510;-58
2021/04/12 07:01:35;;;;;;;0.30;0.20;;;;;;;6.09;91.99;101153.13;5035910;28;20471;-56
2021/04/12 07:04:12;;;;;;;0.30;0.10;;;;;;;5.72;93.11;101155.56;5027763;28;20500;-57
2021/04/12 07:07:09;;;;;;;0.30;0.20;;;;;;;5.82;93.08;101159.13;5046182;28;20517;-57
2021/04/12 07:09:44;;;;;;;0.30;0.13;;;;;;;6.00;93.04;101161.88;5052402;28;20443;-56
2021/04/12 07:12:48;;;;;;;0.30;0.20;;;;;;;5.85;92.33;101167.94;5026859;28;20478;-59
2021/04/12 07:15:45;;;;;;;0.30;0.20;;;;;;;5.85;92.50;101169.69;5052025;28;20869;-56
2021/04/12 07:18:39;;;;;;;0.30;0.10;;;;;;;5.79;91.41;101169.66;5051842;28;20948;-57
2021/04/12 07:21:35;;;;;;;0.30;0.20;;;;;;;5.79;92.55;101175.81;5051799;28;20451;-57
2021/04/12 07:24:29;;;;;;;0.30;0.20;;;;;;;5.98;91.58;101176.81;5078303;22;20847;-51
2021/04/12 07:26:58;;;;;;;0.30;0.10;;;;;;;6.49;90.04;101172.59;5063509;28;20898;-52
2021/04/12 07:30:06;;;;;;;0.30;0.10;;;;;;;6.18;89.89;101179.56;5065861;28;20454;-51
2021/04/12 07:33:00;;;;;;;0.30;0.20;;;;;;;6.48;89.10;101182.28;5035305;28;20544;-51
2021/04/12 07:35:41;;;;;;;0.30;0.20;;;;;;;6.64;89.91;101183.19;5052338;28;20448;-51
2021/04/12 07:38:13;;;;;;;0.30;0.10;;;;;;;6.27;88.22;101192.78;5026999;28;20851;-51
2021/04/12 07:41:17;;;;;;;0.30;0.20;;;;;;;6.19;90.04;101186.59;5051696;28;20451;-51
2021/04/12 07:43:58;;;;;;;0.30;0.20;;;;;;;6.52;88.92;101189.31;5051851;28;20466;-51
2021/04/12 07:47:22;;;;;;;0.30;0.20;;;;;;;6.16;88.18;101195.38;5051856;28;20477;-51
2021/04/12 07:50:06;;;;;;;0.30;0.20;;;;;;;6.29;88.53;101200.69;4990775;28;20887;-51
2021/04/12 07:53:21;;;;;;;0.30;0.30;;;;;;;5.97;86.81;101209.38;4996623;28;20498;-51
2021/04/12 07:56:12;;;;;;;0.30;0.20;;;;;;;6.16;86.26;101211.19;5052768;28;20845;-52
2021/04/12 07:59:23;;;;;;;0.30;0.10;;;;;;;6.66;85.70;101210.50;5041185;28;20951;-51
2021/04/12 08:02:05;;;;;;;0.30;0.20;;;;;;;6.70;87.26;101214.00;5031852;28;20455;-51
2021/04/12 08:05:08;;;;;;;0.30;0.20;;;;;;;6.82;83.27;101214.91;5055221;28;20473;-51
2021/04/12 08:08:08;;;;;;;0.30;0.20;;;;;;;7.11;83.77;101216.72;5040275;28;20498;-51
2021/04/12 08:11:02;;;;;;;0.30;0.20;;;;;;;7.27;81.16;101223.78;5030482;28;20459;-51
2021/04/12 08:14:05;;;;;;;0.30;0.20;;;;;;;7.45;81.16;101224.66;5055059;28;20466;-51
2021/04/12 08:17:07;;;;;;;0.30;0.10;;;;;;;6.80;79.67;101234.28;5054806;28;20457;-51
2021/04/12 08:19:42;;;;;;;0.30;0.20;;;;;;;6.99;80.07;101233.47;5054973;28;20509;-52
2021/04/12 08:22:46;;;;;;;0.30;0.20;;;;;;;7.50;78.15;101236.97;5054879;28;20939;-52
2021/04/12 08:25:47;;;;;;;0.30;0.20;;;;;;;7.04;78.86;101244.91;5030466;28;20451;-52
2021/04/12 08:28:13;;;;;;;0.30;0.17;;;;;;;7.24;79.25;101242.28;5047758;28;20494;-52
2021/04/12 08:31:23;;;;;;;0.30;0.10;;;;;;;6.84;80.00;101252.78;5054869;28;20446;-52
2021/04/12 08:34:08;;;;;;;0.30;0.10;;;;;;;6.95;79.23;101244.88;5038443;28;20467;-51
2021/04/12 08:37:06;;;;;;;0.30;0.20;;;;;;;6.65;79.01;101248.34;5030149;28;20802;-52
2021/04/12 08:39:57;;;;;;;0.30;0.20;;;;;;;7.23;79.77;101251.09;5054455;28;20474;-52
2021/04/12 08:42:30;;;;;;;0.30;0.10;;;;;;;7.42;76.19;101250.22;5054616;28;20454;-52
2021/04/12 08:45:47;;;;;;;0.30;0.10;;;;;;;7.56;76.00;101249.34;5054528;28;20951;-52
2021/04/12 08:48:25;;;;;;;0.30;0.20;;;;;;;7.48;75.11;101254.63;5017049;28;20491;-52
2021/04/12 08:51:40;;;;;;;0.30;0.10;;;;;;;7.86;74.04;101254.59;5054470;28;20442;-52
2021/04/12 08:54:07;;;;;;;0.30;0.20;;;;;;;7.91;75.72;101258.09;5050670;28;20879;-52
2021/04/12 08:57:10;;;;;;;0.30;0.20;;;;;;;7.56;75.37;101265.22;5054538;28;20451;-52
2021/04/12 08:59:54;;;;;;;0.30;0.20;;;;;;;7.78;76.74;101272.22;5031133;28;20859;-52
2021/04/12 09:02:42;;;;;;;0.30;0.20;;;;;;;8.29;75.12;101270.34;5026224;28;20450;-52
2021/04/12 09:05:45;;;;;;;0.30;0.20;;;;;;;8.24;74.19;101272.16;5054181;28;20465;-52
2021/04/12 09:08:41;;;;;;;0.30;0.10;;;;;;;8.43;74.17;101268.56;5042353;28;20493;-53
2021/04/12 09:11:31;;;;;;;0.30;0.17;;;;;;;8.13;73.16;101279.25;5054114;28;20443;-52
2021/04/12 09:14:17;;;;;;;0.30;0.13;;;;;;;8.36;72.15;101282.75;5031198;28;20474;-52
2021/04/12 09:17:20;;;;;;;0.30;0.10;;;;;;;8.22;72.93;101285.41;5053980;28;20505;-53
2021/04/12 09:20:07;;;;;;;0.30;0.20;;;;;;;8.23;73.30;101286.28;5054087;28;20476;-52
2021/04/12 09:22:55;;;;;;;0.30;0.10;;;;;;;8.01;72.49;101275.72;5053741;28;20443;-53
2021/04/12 09:25:50;;;;;;;0.30;0.20;;;;;;;8.74;75.12;101273.72;5031924;28;20474;-52
2021/04/12 09:28:46;;;;;;;0.30;0.20;;;;;;;8.77;70.88;101273.69;5003638;28;20485;-52
2021/04/12 09:31:45;;;;;;;0.30;0.20;;;;;;;8.76;65.07;101275.47;5027793;28;20542;-52
2021/04/12 09:34:33;;;;;;;0.30;0.20;;;;;;;8.66;67.55;101279.06;5053731;28;20529;-52
2021/04/12 09:37:37;;;;;;;0.30;0.20;;;;;;;8.76;67.37;101272.81;5053730;28;20445;-52
2021/04/12 09:40:30;;;;;;;0.30;0.20;;;;;;;8.42;65.66;101280.06;5033653;28;20453;-52
2021/04/12 09:43:04;;;;;;;0.30;0.20;;;;;;;8.75;64.84;101275.47;5027125;28;20829;-53
2021/04/12 09:45:30;;;;;;;0.30;0.20;;;;;;;8.11;63.70;101279.25;5053638;28;20455;-52
2021/04/12 09:48:30;;;;;;;0.30;0.20;;;;;;;8.02;65.40;101272.19;5053167;28;20498;-52
2021/04/12 09:51:34;;;;;;;0.30;0.20;;;;;;;8.76;65.60;101267.50;5053290;28;20458;-52
2021/04/12 09:54:30;;;;;;;0.30;0.10;;;;;;;9.38;64.83;101268.00;5012085;28;20532;-52
2021/04/12 09:57:46;;;;;;;0.30;0.20;;;;;;;8.50;63.81;101280.03;5052961;28;20446;-52
2021/04/12 10:00:30;;;;;;;0.30;0.20;;;;;;;8.51;63.87;101274.72;5044928;28;20439;-51
2021/04/12 10:03:24;;;;;;;0.30;0.20;;;;;;;8.67;65.84;101277.31;5044805;28;20474;-52
2021/04/12 10:06:36;;;;;;;0.30;0.20;;;;;;;8.46;64.92;101276.50;5030081;28;20508;-52
2021/04/12 10:09:09;;;;;;;0.30;0.20;;;;;;;8.56;61.59;101275.56;5014851;28;20533;-52
2021/04/12 10:11:49;;;;;;;0.30;0.20;;;;;;;9.29;60.68;101268.94;5052884;28;20451;-52
2021/04/12 10:14:31;;;;;;;0.30;0.20;;;;;;;9.28;57.38;101275.13;5052963;28;20478;-52
2021/04/12 10:17:10;;;;;;;0.30;0.20;;;;;;;9.05;56.70;101275.31;5027013;28;20446;-52
2021/04/12 10:19:47;;;;;;;0.30;0.20;;;;;;;9.23;57.70;101274.31;5052511;28;20450;-52
2021/04/12 10:22:16;;;;;;;0.30;0.20;;;;;;;8.93;59.90;101274.50;5053299;28;20465;-52
2021/04/12 10:25:07;;;;;;;0.30;0.20;;;;;;;9.22;59.55;101269.91;5052551;28;20459;-52
2021/04/12 10:27:49;;;;;;;0.30;0.20;;;;;;;9.22;60.94;101264.59;5045841;28;20526;-53
2021/04/12 10:30:30;;;;;;;0.40;0.30;;;;;;;8.79;62.35;101271.94;5051610;28;20447;-52
2021/04/12 10:33:02;;;;;;;0.30;0.20;;;;;;;9.12;62.74;101269.06;5052681;28;20462;-52
2021/04/12 10:36:13;;;;;;;0.30;0.20;;;;;;;9.45;61.31;101270.56;5052720;28;20970;-52
2021/04/12 10:38:43;;;;;;;0.30;0.20;;;;;;;9.73;60.56;101265.03;4993571;28;20453;-49
2021/04/12 10:41:27;;;;;;;0.30;0.20;;;;;;;9.77;60.87;101266.78;4997700;28;20440;-50
2021/04/12 10:44:31;;;;;;;0.30;0.20;;;;;;;9.28;58.90;101268.97;5017377;28;20890;-50
2021/04/12 10:47:04;;;;;;;0.30;0.20;;;;;;;9.55;58.69;101267.84;5052560;28;20558;-50
2021/04/12 10:49:52;;;;;;;0.30;0.20;;;;;;;9.46;58.14;101260.88;5027238;28;20475;-50
2021/04/12 10:52:29;;;;;;;0.30;0.20;;;;;;;9.15;59.05;101257.56;5052712;28;20446;-50
2021/04/12 10:55:14;;;;;;;0.30;0.20;;;;;;;9.22;60.62;101264.59;5052332;28;20471;-50
2021/04/12 10:58:06;;;;;;;0.30;0.20;;;;;;;9.89;60.14;101261.34;5019847;28;20550;-51
2021/04/12 11:00:41;;;;;;;0.30;0.20;;;;;;;10.22;59.81;101259.25;5039855;28;20550;-50
2021/04/12 11:03:24;;;;;;;0.30;0.20;;;;;;;10.35;57.99;101260.88;5045698;28;20553;-50
2021/04/12 11:06:19;;;;;;;0.30;0.20;;;;;;;10.05;53.97;101259.41;5030162;28;20486;-50
2021/04/12 11:09:20;;;;;;;0.30;0.20;;;;;;;10.21;58.11;101249.47;5051561;28;20537;-50
2021/04/12 11:11:54;;;;;;;0.30;0.20;;;;;;;10.44;56.79;101250.13;5052233;28;20568;-50
2021/04/12 11:14:31;;;;;;;0.30;0.20;;;;;;;9.66;57.83;101261.56;5052671;28;20462;-50
2021/04/12 11:17:09;;;;;;;0.30;0.20;;;;;;;9.66;59.18;101252.72;5052596;28;20945;-50
2021/04/12 11:19:43;;;;;;;0.30;0.20;;;;;;;9.48;58.65;101252.00;5052038;28;20500;-51
2021/04/12 11:22:30;;;;;;;0.30;0.20;;;;;;;9.99;57.98;101254.16;5052215;28;20446;-50
2021/04/12 11:25:07;;;;;;;0.30;0.20;;;;;;;10.05;57.29;101249.66;5052232;28;20453;-50
2021/04/12 11:27:55;;;;;;;0.30;0.20;;;;;;;10.29;57.67;101250.31;5046134;28;20483;-51
2021/04/12 11:30:33;;;;;;;0.30;0.20;;;;;;;10.31;57.28;101249.41;5052882;28;21039;-52
2021/04/12 11:33:30;;;;;;;0.30;0.20;;;;;;;10.27;57.56;101252.97;5056116;28;20558;-51
2021/04/12 11:36:09;;;;;;;0.30;0.20;;;;;;;10.93;57.48;101254.75;5055535;28;20454;-51
2021/04/12 11:38:45;;;;;;;0.30;0.20;;;;;;;10.76;55.14;101256.78;5055619;28;20972;-51
2021/04/12 11:41:56;;;;;;;0.30;0.20;;;;;;;10.59;55.99;101246.38;5055707;28;20458;-51
2021/04/12 11:44:29;;;;;;;0.30;0.20;;;;;;;10.36;56.48;101250.22;5022570;28;20867;-51
2021/04/12 11:47:11;;;;;;;0.30;0.20;;;;;;;10.43;54.68;101253.69;5056509;28;20485;-51
2021/04/12 11:49:56;;;;;;;0.30;0.20;;;;;;;10.36;54.52;101257.31;5032603;28;20812;-51
2021/04/12 11:52:34;;;;;;;0.30;0.20;;;;;;;10.74;53.33;101258.59;5056542;28;20447;-51
2021/04/12 11:55:28;;;;;;;0.30;0.20;;;;;;;11.03;53.21;101259.06;5056954;28;20970;-52
2021/04/12 11:58:02;;;;;;;0.30;0.20;;;;;;;10.94;53.43;101256.53;5026966;28;20443;-51
2021/04/12 12:00:43;;;;;;;0.30;0.20;;;;;;;11.25;53.32;101259.63;5047900;28;20816;-51
2021/04/12 12:03:24;;;;;;;0.30;0.20;;;;;;;10.87;53.00;101249.56;5055293;28;21024;-52
2021/04/12 12:05:53;;;;;;;0.30;0.20;;;;;;;11.18;54.75;101263.28;5054279;28;20504;-51
2021/04/12 12:08:35;;;;;;;0.30;0.20;;;;;;;11.17;52.89;101265.06;5051003;28;21030;-51
2021/04/12 12:11:35;;;;;;;0.30;0.20;;;;;;;10.97;53.73;101267.16;5055296;28;20481;-51
2021/04/12 12:14:27;;;;;;;0.30;0.20;;;;;;;10.94;53.75;101264.50;5029287;28;20494;-51
2021/04/12 12:16:56;;;;;;;0.30;0.20;;;;;;;11.11;53.85;101266.94;5055302;28;20454;-52
2021/04/12 12:19:54;;;;;;;0.30;0.20;;;;;;;11.19;53.88;101255.25;5055243;28;20442;-51
2021/04/12 12:22:50;;;;;;;0.43;0.40;;;;;;;10.87;54.20;101250.44;5036160;28;20496;-51
2021/04/12 12:25:37;;;;;;;0.30;0.20;;;;;;;11.63;54.08;101266.06;5032408;28;20447;-51
2021/04/12 12:28:15;;;;;;;0.30;0.20;;;;;;;11.52;56.10;101252.97;5048691;28;20490;-51
2021/04/12 12:31:31;;;;;;;0.30;0.20;;;;;;;11.29;57.97;101261.31;5054385;28;20922;-50
2021/04/12 12:34:09;;;;;;;0.30;0.20;;;;;;;10.90;56.48;101254.81;5039025;28;20880;-50
2021/04/12 12:36:59;;;;;;;0.30;0.20;;;;;;;10.71;59.12;101256.00;5031214;28;20478;-50
2021/04/12 12:39:41;;;;;;;0.30;0.20;;;;;;;11.06;60.38;101255.47;5054999;28;20461;-50
2021/04/12 12:42:37;;;;;;;0.30;0.20;;;;;;;11.08;56.55;101251.88;5054721;28;20458;-51
2021/04/12 12:45:13;;;;;;;0.30;0.20;;;;;;;10.71;55.45;101253.34;5050789;28;20451;-51
2021/04/12 12:47:46;;;;;;;0.30;0.20;;;;;;;10.32;57.76;101256.47;5053399;28;20529;-51
2021/04/12 12:50:20;;;;;;;0.30;0.20;;;;;;;10.72;57.99;101265.72;5054858;28;20536;-51
2021/04/12 12:53:10;;;;;;;0.30;0.20;;;;;;;10.42;57.37;101267.88;5030734;28;20998;-50
2021/04/12 12:55:43;;;;;;;0.30;0.20;;;;;;;10.11;56.03;101267.28;5055037;28;20465;-51
2021/04/12 12:58:18;;;;;;;0.30;0.20;;;;;;;10.10;55.68;101271.72;5043248;28;20480;-50
2021/04/12 13:00:47;;;;;;;0.30;0.20;;;;;;;9.94;56.50;101282.53;5041892;28;20486;-50